sensor_id;sensor_type;location;lat;lon;timestamp;temperature;humidity
19496;DHT22;9888;48.606;9.630;2023-12-07T00:01:12;0.00;99.90
19496;DHT22;9888;48.606;9.630;2023-12-07T00:03:40;-0.10;99.90
19496;DHT22;9888;48.606;9.630;2023-12-07T00:06:07;-0.10;99.90
19496;DHT22;9888;48.606;9.630;2023-12-07T00:08:35;-0.10;99.90
19496;DHT22;9888;48.606;9.630;2023-12-07T00:11:02;-0.10;99.90
19496;DHT22;9888;48.606;9.630;2023-12-07T00:13:30;-0.20;99.90
19496;DHT22;9888;48.606;9.630;2023-12-07T00:15:58;-0.20;99.90
19496;DHT22;9888;48.606;9.630;2023-12-07T00:18:25;-0.20;99.90
19496;DHT22;9888;48.606;9.630;2023-12-07T00:20:52;-0.20;99.90
19496;DHT22;9888;48.606;9.630;2023-12-07T00:23:20;-0.10;99.90
19496;DHT22;9888;48.606;9.630;2023-12-07T00:25:47;-0.10;99.90
19496;DHT22;9888;48.606;9.630;2023-12-07T00:28:15;-0.20;99.90
19496;DHT22;9888;48.606;9.630;2023-12-07T00:30:43;-0.30;99.90
19496;DHT22;9888;48.606;9.630;2023-12-07T00:33:10;-0.30;99.90
19496;DHT22;9888;48.606;9.630;2023-12-07T00:35:38;-0.30;99.90
19496;DHT22;9888;48.606;9.630;2023-12-07T00:38:06;-0.30;99.90
19496;DHT22;9888;48.606;9.630;2023-12-07T00:40:35;-0.30;99.90
19496;DHT22;9888;48.606;9.630;2023-12-07T00:43:05;-0.30;99.90
19496;DHT22;9888;48.606;9.630;2023-12-07T00:45:34;-0.40;99.90
19496;DHT22;9888;48.606;9.630;2023-12-07T00:48:01;-0.40;99.90
19496;DHT22;9888;48.606;9.630;2023-12-07T00:50:28;-0.40;99.90
19496;DHT22;9888;48.606;9.630;2023-12-07T00:52:57;-0.40;99.90
19496;DHT22;9888;48.606;9.630;2023-12-07T00:55:25;-0.40;99.90
19496;DHT22;9888;48.606;9.630;2023-12-07T00:57:53;-0.30;99.90
19496;DHT22;9888;48.606;9.630;2023-12-07T01:00:20;-0.30;99.90
19496;DHT22;9888;48.606;9.630;2023-12-07T01:02:49;-0.30;99.90
19496;DHT22;9888;48.606;9.630;2023-12-07T01:05:21;-0.30;99.90
19496;DHT22;9888;48.606;9.630;2023-12-07T01:07:50;-0.30;99.90
19496;DHT22;9888;48.606;9.630;2023-12-07T01:10:27;-0.30;99.90
19496;DHT22;9888;48.606;9.630;2023-12-07T01:12:55;-0.40;99.90
19496;DHT22;9888;48.606;9.630;2023-12-07T01:15:28;-0.50;99.90
19496;DHT22;9888;48.606;9.630;2023-12-07T01:17:57;-0.50;99.90
19496;DHT22;9888;48.606;9.630;2023-12-07T01:20:24;-0.50;99.90
19496;DHT22;9888;48.606;9.630;2023-12-07T01:22:52;-0.60;99.90
19496;DHT22;9888;48.606;9.630;2023-12-07T01:25:19;-0.60;99.90
19496;DHT22;9888;48.606;9.630;2023-12-07T01:27:48;-0.60;99.90
19496;DHT22;9888;48.606;9.630;2023-12-07T01:30:23;-0.60;99.90
19496;DHT22;9888;48.606;9.630;2023-12-07T01:32:51;-0.60;99.90
19496;DHT22;9888;48.606;9.630;2023-12-07T01:35:26;-0.70;99.90
19496;DHT22;9888;48.606;9.630;2023-12-07T01:37:55;-0.70;99.90
19496;DHT22;9888;48.606;9.630;2023-12-07T01:40:25;-0.70;99.90
19496;DHT22;9888;48.606;9.630;2023-12-07T01:42:55;-0.70;99.90
19496;DHT22;9888;48.606;9.630;2023-12-07T01:45:23;-0.60;99.90
19496;DHT22;9888;48.606;9.630;2023-12-07T01:47:55;-0.60;99.90
19496;DHT22;9888;48.606;9.630;2023-12-07T01:50:25;-0.80;99.90
19496;DHT22;9888;48.606;9.630;2023-12-07T01:53:01;-0.80;99.90
19496;DHT22;9888;48.606;9.630;2023-12-07T01:55:45;-0.90;99.90
19496;DHT22;9888;48.606;9.630;2023-12-07T01:58:19;-1.00;99.90
19496;DHT22;9888;48.606;9.630;2023-12-07T02:00:51;-0.90;99.90
19496;DHT22;9888;48.606;9.630;2023-12-07T02:04:30;-1.00;99.90
19496;DHT22;9888;48.606;9.630;2023-12-07T02:07:08;-1.10;99.90
19496;DHT22;9888;48.606;9.630;2023-12-07T02:12:51;-1.20;99.90
19496;DHT22;9888;48.606;9.630;2023-12-07T02:15:23;-1.20;99.90
19496;DHT22;9888;48.606;9.630;2023-12-07T02:17:57;-1.10;99.90
19496;DHT22;9888;48.606;9.630;2023-12-07T02:21:11;-1.10;99.90
19496;DHT22;9888;48.606;9.630;2023-12-07T02:23:37;-1.00;99.90
19496;DHT22;9888;48.606;9.630;2023-12-07T02:26:35;-1.10;99.90
19496;DHT22;9888;48.606;9.630;2023-12-07T02:29:04;-1.00;99.90
19496;DHT22;9888;48.606;9.630;2023-12-07T02:31:41;-1.00;99.90
19496;DHT22;9888;48.606;9.630;2023-12-07T02:38:01;-0.90;99.90
19496;DHT22;9888;48.606;9.630;2023-12-07T02:43:51;-1.00;99.90
19496;DHT22;9888;48.606;9.630;2023-12-07T02:46:20;-1.00;99.90
19496;DHT22;9888;48.606;9.630;2023-12-07T02:58:33;-1.20;99.90
19496;DHT22;9888;48.606;9.630;2023-12-07T03:01:17;-1.30;99.90
19496;DHT22;9888;48.606;9.630;2023-12-07T03:03:57;-1.40;99.90
19496;DHT22;9888;48.606;9.630;2023-12-07T03:07:05;-1.40;99.90
19496;DHT22;9888;48.606;9.630;2023-12-07T03:09:50;-1.40;99.90
19496;DHT22;9888;48.606;9.630;2023-12-07T03:12:18;-1.40;99.90
19496;DHT22;9888;48.606;9.630;2023-12-07T03:14:47;-1.40;99.90
19496;DHT22;9888;48.606;9.630;2023-12-07T03:17:16;-1.40;99.90
19496;DHT22;9888;48.606;9.630;2023-12-07T03:19:48;-1.50;99.90
19496;DHT22;9888;48.606;9.630;2023-12-07T03:22:16;-1.50;99.90
19496;DHT22;9888;48.606;9.630;2023-12-07T03:25:00;-1.50;99.90
19496;DHT22;9888;48.606;9.630;2023-12-07T03:27:31;-1.50;99.90
19496;DHT22;9888;48.606;9.630;2023-12-07T03:30:02;-1.50;99.90
19496;DHT22;9888;48.606;9.630;2023-12-07T03:32:42;-1.50;99.90
19496;DHT22;9888;48.606;9.630;2023-12-07T03:35:09;-1.50;99.90
19496;DHT22;9888;48.606;9.630;2023-12-07T03:37:36;-1.50;99.90
19496;DHT22;9888;48.606;9.630;2023-12-07T03:40:08;-1.50;99.90
19496;DHT22;9888;48.606;9.630;2023-12-07T03:42:36;-1.50;99.90
19496;DHT22;9888;48.606;9.630;2023-12-07T03:45:06;-1.50;99.90
19496;DHT22;9888;48.606;9.630;2023-12-07T03:47:40;-1.50;99.90
19496;DHT22;9888;48.606;9.630;2023-12-07T03:50:07;-1.40;99.90
19496;DHT22;9888;48.606;9.630;2023-12-07T03:52:44;-1.40;99.90
19496;DHT22;9888;48.606;9.630;2023-12-07T03:55:13;-1.40;99.90
19496;DHT22;9888;48.606;9.630;2023-12-07T03:57:40;-1.40;99.90
19496;DHT22;9888;48.606;9.630;2023-12-07T04:00:11;-1.40;99.90
19496;DHT22;9888;48.606;9.630;2023-12-07T04:02:39;-1.40;99.90
19496;DHT22;9888;48.606;9.630;2023-12-07T04:05:06;-1.40;99.90
19496;DHT22;9888;48.606;9.630;2023-12-07T04:07:37;-1.40;99.90
19496;DHT22;9888;48.606;9.630;2023-12-07T04:10:05;-1.40;99.90
19496;DHT22;9888;48.606;9.630;2023-12-07T04:12:51;-1.30;99.90
19496;DHT22;9888;48.606;9.630;2023-12-07T04:15:38;-1.30;99.90
19496;DHT22;9888;48.606;9.630;2023-12-07T04:18:24;-1.20;99.90
19496;DHT22;9888;48.606;9.630;2023-12-07T04:21:10;-1.20;99.90
19496;DHT22;9888;48.606;9.630;2023-12-07T04:23:47;-1.20;99.90
19496;DHT22;9888;48.606;9.630;2023-12-07T04:26:36;-1.10;99.90
19496;DHT22;9888;48.606;9.630;2023-12-07T04:29:12;-1.00;99.90
19496;DHT22;9888;48.606;9.630;2023-12-07T04:34:59;-1.10;99.90
19496;DHT22;9888;48.606;9.630;2023-12-07T04:40:49;-1.10;99.90
19496;DHT22;9888;48.606;9.630;2023-12-07T04:43:18;-1.20;99.90
19496;DHT22;9888;48.606;9.630;2023-12-07T04:45:46;-1.30;99.90
19496;DHT22;9888;48.606;9.630;2023-12-07T04:48:15;-1.40;99.90
19496;DHT22;9888;48.606;9.630;2023-12-07T04:53:33;-1.50;99.90
19496;DHT22;9888;48.606;9.630;2023-12-07T04:56:14;-1.60;99.90
19496;DHT22;9888;48.606;9.630;2023-12-07T05:02:08;-1.90;99.90
19496;DHT22;9888;48.606;9.630;2023-12-07T05:04:36;-2.00;99.90
19496;DHT22;9888;48.606;9.630;2023-12-07T05:07:06;-2.20;99.90
19496;DHT22;9888;48.606;9.630;2023-12-07T05:09:59;-2.30;99.90
19496;DHT22;9888;48.606;9.630;2023-12-07T05:12:38;-2.40;99.90
19496;DHT22;9888;48.606;9.630;2023-12-07T05:15:10;-2.40;99.90
19496;DHT22;9888;48.606;9.630;2023-12-07T05:17:48;-2.50;99.90
19496;DHT22;9888;48.606;9.630;2023-12-07T05:20:26;-2.50;99.90
19496;DHT22;9888;48.606;9.630;2023-12-07T05:23:02;-2.60;99.90
19496;DHT22;9888;48.606;9.630;2023-12-07T05:25:32;-2.80;99.90
19496;DHT22;9888;48.606;9.630;2023-12-07T05:28:01;-2.90;99.90
19496;DHT22;9888;48.606;9.630;2023-12-07T05:30:33;-2.90;99.90
19496;DHT22;9888;48.606;9.630;2023-12-07T05:33:04;-2.90;99.90
19496;DHT22;9888;48.606;9.630;2023-12-07T05:35:34;-2.90;99.90
19496;DHT22;9888;48.606;9.630;2023-12-07T05:38:19;-3.10;99.90
19496;DHT22;9888;48.606;9.630;2023-12-07T05:44:34;-3.40;99.90
19496;DHT22;9888;48.606;9.630;2023-12-07T05:47:01;-3.50;99.90
19496;DHT22;9888;48.606;9.630;2023-12-07T05:49:28;-3.50;99.90
19496;DHT22;9888;48.606;9.630;2023-12-07T05:51:57;-3.60;99.90
19496;DHT22;9888;48.606;9.630;2023-12-07T05:54:32;-3.70;99.90
19496;DHT22;9888;48.606;9.630;2023-12-07T05:57:07;-3.80;99.90
19496;DHT22;9888;48.606;9.630;2023-12-07T05:59:40;-3.90;99.90
19496;DHT22;9888;48.606;9.630;2023-12-07T06:02:26;-3.90;99.90
19496;DHT22;9888;48.606;9.630;2023-12-07T06:05:04;-3.90;99.90
19496;DHT22;9888;48.606;9.630;2023-12-07T06:07:32;-4.00;99.90
19496;DHT22;9888;48.606;9.630;2023-12-07T06:13:22;-4.20;99.90
19496;DHT22;9888;48.606;9.630;2023-12-07T06:16:15;-4.10;99.90
19496;DHT22;9888;48.606;9.630;2023-12-07T06:19:18;-4.10;99.90
19496;DHT22;9888;48.606;9.630;2023-12-07T06:21:56;-4.10;99.90
19496;DHT22;9888;48.606;9.630;2023-12-07T06:24:25;-4.10;99.90
19496;DHT22;9888;48.606;9.630;2023-12-07T06:27:33;-4.20;99.90
19496;DHT22;9888;48.606;9.630;2023-12-07T06:30:10;-4.30;99.90
19496;DHT22;9888;48.606;9.630;2023-12-07T06:32:47;-4.40;99.90
19496;DHT22;9888;48.606;9.630;2023-12-07T06:38:39;-4.50;99.90
19496;DHT22;9888;48.606;9.630;2023-12-07T06:41:08;-4.50;99.90
19496;DHT22;9888;48.606;9.630;2023-12-07T06:47:21;-4.50;99.90
19496;DHT22;9888;48.606;9.630;2023-12-07T06:53:07;-4.70;99.90
19496;DHT22;9888;48.606;9.630;2023-12-07T06:55:35;-4.80;99.90
19496;DHT22;9888;48.606;9.630;2023-12-07T06:58:02;-4.80;99.90
19496;DHT22;9888;48.606;9.630;2023-12-07T07:00:29;-4.80;99.90
19496;DHT22;9888;48.606;9.630;2023-12-07T07:02:57;-4.80;99.90
19496;DHT22;9888;48.606;9.630;2023-12-07T07:05:24;-4.80;99.90
19496;DHT22;9888;48.606;9.630;2023-12-07T07:07:52;-4.80;99.90
19496;DHT22;9888;48.606;9.630;2023-12-07T07:10:22;-4.90;99.90
19496;DHT22;9888;48.606;9.630;2023-12-07T07:12:49;-4.90;99.90
19496;DHT22;9888;48.606;9.630;2023-12-07T07:15:16;-5.00;99.90
19496;DHT22;9888;48.606;9.630;2023-12-07T07:17:46;-5.00;99.90
19496;DHT22;9888;48.606;9.630;2023-12-07T07:20:13;-4.90;99.90
19496;DHT22;9888;48.606;9.630;2023-12-07T07:22:41;-4.80;99.90
19496;DHT22;9888;48.606;9.630;2023-12-07T07:25:09;-4.80;99.90
19496;DHT22;9888;48.606;9.630;2023-12-07T07:27:36;-4.80;99.90
19496;DHT22;9888;48.606;9.630;2023-12-07T07:33:16;-4.80;99.90
19496;DHT22;9888;48.606;9.630;2023-12-07T07:35:44;-4.90;99.90
19496;DHT22;9888;48.606;9.630;2023-12-07T07:38:23;-4.90;99.90
19496;DHT22;9888;48.606;9.630;2023-12-07T07:40:51;-4.90;99.90
19496;DHT22;9888;48.606;9.630;2023-12-07T07:43:18;-4.90;99.90
19496;DHT22;9888;48.606;9.630;2023-12-07T07:46:08;-4.80;99.90
19496;DHT22;9888;48.606;9.630;2023-12-07T07:48:35;-4.80;99.90
19496;DHT22;9888;48.606;9.630;2023-12-07T07:51:03;-4.70;99.90
19496;DHT22;9888;48.606;9.630;2023-12-07T07:53:33;-4.70;99.90
19496;DHT22;9888;48.606;9.630;2023-12-07T07:56:03;-4.80;99.90
19496;DHT22;9888;48.606;9.630;2023-12-07T07:58:35;-4.80;99.90
19496;DHT22;9888;48.606;9.630;2023-12-07T08:04:28;-4.80;99.90
19496;DHT22;9888;48.606;9.630;2023-12-07T08:06:59;-4.90;99.90
19496;DHT22;9888;48.606;9.630;2023-12-07T08:09:30;-5.00;99.90
19496;DHT22;9888;48.606;9.630;2023-12-07T08:12:05;-5.00;99.90
19496;DHT22;9888;48.606;9.630;2023-12-07T08:14:38;-5.00;99.90
19496;DHT22;9888;48.606;9.630;2023-12-07T08:17:06;-5.10;99.90
19496;DHT22;9888;48.606;9.630;2023-12-07T08:19:43;-5.00;99.90
19496;DHT22;9888;48.606;9.630;2023-12-07T08:22:15;-5.00;99.90
19496;DHT22;9888;48.606;9.630;2023-12-07T08:24:45;-5.00;99.90
19496;DHT22;9888;48.606;9.630;2023-12-07T08:30:33;-5.00;99.90
19496;DHT22;9888;48.606;9.630;2023-12-07T08:33:00;-5.00;99.90
19496;DHT22;9888;48.606;9.630;2023-12-07T08:35:29;-5.00;99.90
19496;DHT22;9888;48.606;9.630;2023-12-07T08:37:56;-4.90;99.90
19496;DHT22;9888;48.606;9.630;2023-12-07T08:40:22;-4.90;99.90
19496;DHT22;9888;48.606;9.630;2023-12-07T08:42:49;-4.80;99.90
19496;DHT22;9888;48.606;9.630;2023-12-07T08:45:21;-4.80;99.90
19496;DHT22;9888;48.606;9.630;2023-12-07T08:47:49;-4.70;99.90
19496;DHT22;9888;48.606;9.630;2023-12-07T08:50:17;-4.50;99.90
19496;DHT22;9888;48.606;9.630;2023-12-07T08:52:45;-4.20;99.90
19496;DHT22;9888;48.606;9.630;2023-12-07T08:55:14;-2.80;99.90
19496;DHT22;9888;48.606;9.630;2023-12-07T08:57:52;-1.40;99.90
19496;DHT22;9888;48.606;9.630;2023-12-07T09:00:19;0.40;99.90
19496;DHT22;9888;48.606;9.630;2023-12-07T09:02:52;2.10;99.90
19496;DHT22;9888;48.606;9.630;2023-12-07T09:05:20;4.70;99.90
19496;DHT22;9888;48.606;9.630;2023-12-07T09:07:52;7.20;99.90
19496;DHT22;9888;48.606;9.630;2023-12-07T09:10:23;8.40;99.90
19496;DHT22;9888;48.606;9.630;2023-12-07T09:12:50;10.30;99.90
19496;DHT22;9888;48.606;9.630;2023-12-07T09:15:17;11.80;99.90
19496;DHT22;9888;48.606;9.630;2023-12-07T09:17:45;11.90;99.90
19496;DHT22;9888;48.606;9.630;2023-12-07T09:20:13;11.50;99.90
19496;DHT22;9888;48.606;9.630;2023-12-07T09:22:44;12.60;99.90
19496;DHT22;9888;48.606;9.630;2023-12-07T09:25:13;12.80;99.90
19496;DHT22;9888;48.606;9.630;2023-12-07T09:27:43;12.40;99.90
19496;DHT22;9888;48.606;9.630;2023-12-07T09:30:13;12.50;99.90
19496;DHT22;9888;48.606;9.630;2023-12-07T09:32:42;11.60;99.90
19496;DHT22;9888;48.606;9.630;2023-12-07T09:35:11;12.20;99.90
19496;DHT22;9888;48.606;9.630;2023-12-07T09:37:51;12.60;99.90
19496;DHT22;9888;48.606;9.630;2023-12-07T09:40:29;13.80;99.90
19496;DHT22;9888;48.606;9.630;2023-12-07T09:42:56;13.40;99.90
19496;DHT22;9888;48.606;9.630;2023-12-07T09:45:24;13.30;99.90
19496;DHT22;9888;48.606;9.630;2023-12-07T09:47:53;14.00;99.90
19496;DHT22;9888;48.606;9.630;2023-12-07T09:50:22;14.30;99.90
19496;DHT22;9888;48.606;9.630;2023-12-07T09:52:51;13.70;99.90
19496;DHT22;9888;48.606;9.630;2023-12-07T09:55:19;13.90;99.90
19496;DHT22;9888;48.606;9.630;2023-12-07T09:57:49;13.40;99.90
19496;DHT22;9888;48.606;9.630;2023-12-07T10:00:17;13.30;99.90
19496;DHT22;9888;48.606;9.630;2023-12-07T10:02:46;13.70;99.90
19496;DHT22;9888;48.606;9.630;2023-12-07T10:05:15;14.80;99.90
19496;DHT22;9888;48.606;9.630;2023-12-07T10:07:50;15.60;99.90
19496;DHT22;9888;48.606;9.630;2023-12-07T10:10:19;16.30;99.50
19496;DHT22;9888;48.606;9.630;2023-12-07T10:12:58;16.20;99.90
19496;DHT22;9888;48.606;9.630;2023-12-07T10:15:27;16.40;98.50
19496;DHT22;9888;48.606;9.630;2023-12-07T10:17:56;16.30;97.00
19496;DHT22;9888;48.606;9.630;2023-12-07T10:20:27;16.70;97.90
19496;DHT22;9888;48.606;9.630;2023-12-07T10:23:04;17.90;96.70
19496;DHT22;9888;48.606;9.630;2023-12-07T10:25:34;16.90;95.60
19496;DHT22;9888;48.606;9.630;2023-12-07T10:28:05;17.00;97.00
19496;DHT22;9888;48.606;9.630;2023-12-07T10:30:40;16.90;98.40
19496;DHT22;9888;48.606;9.630;2023-12-07T10:33:07;17.00;98.30
19496;DHT22;9888;48.606;9.630;2023-12-07T10:35:39;17.10;99.60
19496;DHT22;9888;48.606;9.630;2023-12-07T10:38:11;17.30;99.20
19496;DHT22;9888;48.606;9.630;2023-12-07T10:40:40;17.70;99.10
19496;DHT22;9888;48.606;9.630;2023-12-07T10:43:08;18.10;97.40
19496;DHT22;9888;48.606;9.630;2023-12-07T10:45:36;18.60;97.60
19496;DHT22;9888;48.606;9.630;2023-12-07T10:48:08;18.80;96.70
19496;DHT22;9888;48.606;9.630;2023-12-07T10:50:50;18.20;96.70
19496;DHT22;9888;48.606;9.630;2023-12-07T10:53:49;17.50;96.20
19496;DHT22;9888;48.606;9.630;2023-12-07T10:56:29;17.40;95.10
19496;DHT22;9888;48.606;9.630;2023-12-07T10:59:01;17.10;95.90
19496;DHT22;9888;48.606;9.630;2023-12-07T11:01:28;17.10;97.00
19496;DHT22;9888;48.606;9.630;2023-12-07T11:03:58;17.10;97.30
19496;DHT22;9888;48.606;9.630;2023-12-07T11:06:26;17.20;97.30
19496;DHT22;9888;48.606;9.630;2023-12-07T11:09:03;17.10;95.70
19496;DHT22;9888;48.606;9.630;2023-12-07T11:14:33;13.20;96.20
19496;DHT22;9888;48.606;9.630;2023-12-07T11:17:02;12.00;97.60
19496;DHT22;9888;48.606;9.630;2023-12-07T11:22:09;10.40;97.90
19496;DHT22;9888;48.606;9.630;2023-12-07T11:24:37;9.10;99.30
19496;DHT22;9888;48.606;9.630;2023-12-07T11:27:05;8.10;99.90
19496;DHT22;9888;48.606;9.630;2023-12-07T11:29:32;7.00;99.90
19496;DHT22;9888;48.606;9.630;2023-12-07T11:32:03;6.00;99.90
19496;DHT22;9888;48.606;9.630;2023-12-07T11:34:43;5.10;99.90
19496;DHT22;9888;48.606;9.630;2023-12-07T11:37:15;4.30;99.90
19496;DHT22;9888;48.606;9.630;2023-12-07T11:39:45;3.70;99.90
19496;DHT22;9888;48.606;9.630;2023-12-07T11:42:16;3.30;99.90
19496;DHT22;9888;48.606;9.630;2023-12-07T11:44:47;3.10;99.90
19496;DHT22;9888;48.606;9.630;2023-12-07T11:47:21;2.90;99.90
19496;DHT22;9888;48.606;9.630;2023-12-07T11:49:48;2.80;99.90
19496;DHT22;9888;48.606;9.630;2023-12-07T11:52:20;2.80;99.90
19496;DHT22;9888;48.606;9.630;2023-12-07T11:54:49;2.70;99.90
19496;DHT22;9888;48.606;9.630;2023-12-07T11:57:22;2.60;99.90
19496;DHT22;9888;48.606;9.630;2023-12-07T11:59:49;2.60;99.90
19496;DHT22;9888;48.606;9.630;2023-12-07T12:02:46;2.50;99.90
19496;DHT22;9888;48.606;9.630;2023-12-07T12:05:18;2.50;99.90
19496;DHT22;9888;48.606;9.630;2023-12-07T12:07:49;2.40;99.90
19496;DHT22;9888;48.606;9.630;2023-12-07T12:10:29;2.50;99.90
19496;DHT22;9888;48.606;9.630;2023-12-07T12:16:21;2.50;99.90
19496;DHT22;9888;48.606;9.630;2023-12-07T12:18:48;2.40;99.90
19496;DHT22;9888;48.606;9.630;2023-12-07T12:21:16;2.40;99.90
19496;DHT22;9888;48.606;9.630;2023-12-07T12:23:43;2.30;99.90
19496;DHT22;9888;48.606;9.630;2023-12-07T12:26:10;2.30;99.90
19496;DHT22;9888;48.606;9.630;2023-12-07T12:28:38;2.30;99.90
19496;DHT22;9888;48.606;9.630;2023-12-07T12:31:10;2.40;99.90
19496;DHT22;9888;48.606;9.630;2023-12-07T12:33:40;2.40;99.90
19496;DHT22;9888;48.606;9.630;2023-12-07T12:36:08;2.30;99.90
19496;DHT22;9888;48.606;9.630;2023-12-07T12:38:39;2.30;99.90
19496;DHT22;9888;48.606;9.630;2023-12-07T12:41:06;2.20;99.90
19496;DHT22;9888;48.606;9.630;2023-12-07T12:43:34;2.10;99.90
19496;DHT22;9888;48.606;9.630;2023-12-07T12:46:05;2.00;99.90
19496;DHT22;9888;48.606;9.630;2023-12-07T12:48:34;1.90;99.90
19496;DHT22;9888;48.606;9.630;2023-12-07T12:51:13;1.90;99.90
19496;DHT22;9888;48.606;9.630;2023-12-07T12:53:47;1.80;99.90
19496;DHT22;9888;48.606;9.630;2023-12-07T12:56:40;1.70;99.90
19496;DHT22;9888;48.606;9.630;2023-12-07T12:59:18;1.60;99.90
19496;DHT22;9888;48.606;9.630;2023-12-07T13:01:53;1.60;99.90
19496;DHT22;9888;48.606;9.630;2023-12-07T13:04:20;1.50;99.90
19496;DHT22;9888;48.606;9.630;2023-12-07T13:06:48;1.50;99.90
19496;DHT22;9888;48.606;9.630;2023-12-07T13:09:20;1.50;99.90
19496;DHT22;9888;48.606;9.630;2023-12-07T13:11:50;1.40;99.90
19496;DHT22;9888;48.606;9.630;2023-12-07T13:14:18;1.40;99.90
19496;DHT22;9888;48.606;9.630;2023-12-07T13:16:46;1.50;99.90
19496;DHT22;9888;48.606;9.630;2023-12-07T13:19:14;1.50;99.90
19496;DHT22;9888;48.606;9.630;2023-12-07T13:21:42;1.50;99.90
19496;DHT22;9888;48.606;9.630;2023-12-07T13:24:11;1.60;99.90
19496;DHT22;9888;48.606;9.630;2023-12-07T13:26:42;1.60;99.90
19496;DHT22;9888;48.606;9.630;2023-12-07T13:29:09;1.60;99.90
19496;DHT22;9888;48.606;9.630;2023-12-07T13:31:37;1.60;99.90
19496;DHT22;9888;48.606;9.630;2023-12-07T13:34:05;1.50;99.90
19496;DHT22;9888;48.606;9.630;2023-12-07T13:36:32;1.50;99.90
19496;DHT22;9888;48.606;9.630;2023-12-07T13:39:01;1.50;99.90
19496;DHT22;9888;48.606;9.630;2023-12-07T13:41:29;1.50;99.90
19496;DHT22;9888;48.606;9.630;2023-12-07T13:43:56;1.40;99.90
19496;DHT22;9888;48.606;9.630;2023-12-07T13:46:24;1.40;99.90
19496;DHT22;9888;48.606;9.630;2023-12-07T13:48:53;1.40;99.90
19496;DHT22;9888;48.606;9.630;2023-12-07T13:51:21;1.40;99.90
19496;DHT22;9888;48.606;9.630;2023-12-07T13:53:50;1.40;99.90
19496;DHT22;9888;48.606;9.630;2023-12-07T13:56:22;1.40;99.90
19496;DHT22;9888;48.606;9.630;2023-12-07T14:02:15;1.40;99.90
19496;DHT22;9888;48.606;9.630;2023-12-07T14:04:44;1.40;99.90
19496;DHT22;9888;48.606;9.630;2023-12-07T14:07:14;1.50;99.90
19496;DHT22;9888;48.606;9.630;2023-12-07T14:09:43;1.60;99.90
19496;DHT22;9888;48.606;9.630;2023-12-07T14:12:10;1.70;99.90
19496;DHT22;9888;48.606;9.630;2023-12-07T14:14:49;1.70;99.90
19496;DHT22;9888;48.606;9.630;2023-12-07T14:17:17;1.70;99.90
19496;DHT22;9888;48.606;9.630;2023-12-07T14:19:46;1.60;99.90
19496;DHT22;9888;48.606;9.630;2023-12-07T14:22:21;1.50;99.90
19496;DHT22;9888;48.606;9.630;2023-12-07T14:24:49;1.50;99.90
19496;DHT22;9888;48.606;9.630;2023-12-07T14:27:16;1.60;99.90
19496;DHT22;9888;48.606;9.630;2023-12-07T14:29:44;1.50;99.90
19496;DHT22;9888;48.606;9.630;2023-12-07T14:32:11;1.60;99.90
19496;DHT22;9888;48.606;9.630;2023-12-07T14:34:39;1.60;99.90
19496;DHT22;9888;48.606;9.630;2023-12-07T14:37:08;1.50;99.90
19496;DHT22;9888;48.606;9.630;2023-12-07T14:39:41;1.50;99.90
19496;DHT22;9888;48.606;9.630;2023-12-07T14:42:10;1.40;99.90
19496;DHT22;9888;48.606;9.630;2023-12-07T14:44:38;1.30;99.90
19496;DHT22;9888;48.606;9.630;2023-12-07T14:47:07;1.30;99.90
19496;DHT22;9888;48.606;9.630;2023-12-07T14:49:34;1.10;99.90
19496;DHT22;9888;48.606;9.630;2023-12-07T14:52:02;1.00;99.90
19496;DHT22;9888;48.606;9.630;2023-12-07T14:54:30;0.90;99.90
19496;DHT22;9888;48.606;9.630;2023-12-07T14:57:09;0.70;99.90
19496;DHT22;9888;48.606;9.630;2023-12-07T14:59:36;0.50;99.90
19496;DHT22;9888;48.606;9.630;2023-12-07T15:02:04;0.30;99.90
19496;DHT22;9888;48.606;9.630;2023-12-07T15:04:34;0.20;99.90
19496;DHT22;9888;48.606;9.630;2023-12-07T15:07:04;0.00;99.90
19496;DHT22;9888;48.606;9.630;2023-12-07T15:09:31;-0.20;99.90
19496;DHT22;9888;48.606;9.630;2023-12-07T15:12:01;-0.30;99.90
19496;DHT22;9888;48.606;9.630;2023-12-07T15:14:29;-0.40;99.90
19496;DHT22;9888;48.606;9.630;2023-12-07T15:16:56;-0.50;99.90
19496;DHT22;9888;48.606;9.630;2023-12-07T15:19:23;-0.70;99.90
19496;DHT22;9888;48.606;9.630;2023-12-07T15:21:51;-0.80;99.90
19496;DHT22;9888;48.606;9.630;2023-12-07T15:24:22;-1.00;99.90
19496;DHT22;9888;48.606;9.630;2023-12-07T15:26:51;-1.10;99.90
19496;DHT22;9888;48.606;9.630;2023-12-07T15:29:19;-1.10;99.90
19496;DHT22;9888;48.606;9.630;2023-12-07T15:31:47;-1.30;99.90
19496;DHT22;9888;48.606;9.630;2023-12-07T15:34:14;-1.30;99.90
19496;DHT22;9888;48.606;9.630;2023-12-07T15:36:42;-1.40;99.90
19496;DHT22;9888;48.606;9.630;2023-12-07T15:39:09;-1.40;99.90
19496;DHT22;9888;48.606;9.630;2023-12-07T15:41:39;-1.50;99.90
19496;DHT22;9888;48.606;9.630;2023-12-07T15:44:06;-1.80;99.90
19496;DHT22;9888;48.606;9.630;2023-12-07T15:46:43;-1.90;99.90
19496;DHT22;9888;48.606;9.630;2023-12-07T15:49:21;-2.00;99.90
19496;DHT22;9888;48.606;9.630;2023-12-07T15:51:49;-2.10;99.90
19496;DHT22;9888;48.606;9.630;2023-12-07T15:54:16;-2.00;99.90
19496;DHT22;9888;48.606;9.630;2023-12-07T15:56:44;-2.00;99.90
19496;DHT22;9888;48.606;9.630;2023-12-07T15:59:11;-2.00;99.90
19496;DHT22;9888;48.606;9.630;2023-12-07T16:01:40;-1.90;99.90
19496;DHT22;9888;48.606;9.630;2023-12-07T16:04:14;-1.90;99.90
19496;DHT22;9888;48.606;9.630;2023-12-07T16:06:59;-1.70;99.90
19496;DHT22;9888;48.606;9.630;2023-12-07T16:09:29;-1.60;99.90
19496;DHT22;9888;48.606;9.630;2023-12-07T16:11:56;-1.40;99.90
19496;DHT22;9888;48.606;9.630;2023-12-07T16:14:25;-1.40;99.90
19496;DHT22;9888;48.606;9.630;2023-12-07T16:16:52;-1.40;99.90
19496;DHT22;9888;48.606;9.630;2023-12-07T16:19:19;-1.40;99.90
19496;DHT22;9888;48.606;9.630;2023-12-07T16:21:47;-1.40;99.90
19496;DHT22;9888;48.606;9.630;2023-12-07T16:24:30;-1.30;99.90
19496;DHT22;9888;48.606;9.630;2023-12-07T16:30:20;-1.40;99.90
19496;DHT22;9888;48.606;9.630;2023-12-07T16:32:48;-1.50;99.90
19496;DHT22;9888;48.606;9.630;2023-12-07T16:35:18;-1.50;99.90
19496;DHT22;9888;48.606;9.630;2023-12-07T16:37:46;-1.50;99.90
19496;DHT22;9888;48.606;9.630;2023-12-07T16:40:13;-1.50;99.90
19496;DHT22;9888;48.606;9.630;2023-12-07T16:42:41;-1.60;99.90
19496;DHT22;9888;48.606;9.630;2023-12-07T16:45:10;-1.60;99.90
19496;DHT22;9888;48.606;9.630;2023-12-07T16:47:39;-1.60;99.90
19496;DHT22;9888;48.606;9.630;2023-12-07T16:50:07;-1.50;99.90
19496;DHT22;9888;48.606;9.630;2023-12-07T16:52:34;-1.50;99.90
19496;DHT22;9888;48.606;9.630;2023-12-07T16:55:10;-1.60;99.90
19496;DHT22;9888;48.606;9.630;2023-12-07T16:57:42;-1.60;99.90
19496;DHT22;9888;48.606;9.630;2023-12-07T17:00:12;-1.60;99.90
19496;DHT22;9888;48.606;9.630;2023-12-07T17:02:41;-1.40;99.90
19496;DHT22;9888;48.606;9.630;2023-12-07T17:05:08;-1.40;99.90
19496;DHT22;9888;48.606;9.630;2023-12-07T17:07:39;-1.50;99.90
19496;DHT22;9888;48.606;9.630;2023-12-07T17:10:08;-1.60;99.90
19496;DHT22;9888;48.606;9.630;2023-12-07T17:12:38;-1.60;99.90
19496;DHT22;9888;48.606;9.630;2023-12-07T17:15:06;-1.50;99.90
19496;DHT22;9888;48.606;9.630;2023-12-07T17:17:34;-1.40;99.90
19496;DHT22;9888;48.606;9.630;2023-12-07T17:20:02;-1.30;99.90
19496;DHT22;9888;48.606;9.630;2023-12-07T17:22:36;-1.40;99.90
19496;DHT22;9888;48.606;9.630;2023-12-07T17:25:05;-1.30;99.90
19496;DHT22;9888;48.606;9.630;2023-12-07T17:28:08;-1.40;99.90
19496;DHT22;9888;48.606;9.630;2023-12-07T17:30:36;-1.40;99.90
19496;DHT22;9888;48.606;9.630;2023-12-07T17:33:05;-1.50;99.90